Littleriver, California
Current Conditions -  °F | °C
As of 11:56 AM on Saturday 25 Oct 2014 (Local Time) from KUKI Reporting Station
Light Rain Light Rain  
Wind Chill: 62°   Ceiling: 3600
Heat Index: 62°   Visibility: 10mi
Dew Point: 55°   Wind: 8mph
Humidity: 78%   Direction: 130°SE
Pressure: 29.97"   Gusts: NA
Location:  39.2639°N, 123.761°W
Report Text: KUKI 251856Z AUTO 13007KT 10SM -RA SCT027 BKN036 OVC046 17/13 A2997 RMK AO2 SLP142 P0002 T01670128
Loading
Personal Weather Stations






























Interactive Weather Map
Tropical Storm Tracking
New forecast layout! Learn more

10-Day Weather Forecast

Advertisements
Track Severe Weather on mobile